Tenerife Sur/Reina Sofia

Airport
ICAO code: 
GCTS
Summary
ICAO Region: 
EUR
Territory: 
Location: 
Granadilla de Abona,
Coordinates: 
Aerial View: 
28° 2' 43.598" N, 16° 34' 24.001" W
Metar
Observation
GCTS 170430Z 03006KT 010V070 1500 HZ SCT035 BKN050 17/14 Q1020 NOSIG
Station
Tenerife Sur
Date/Time
2022-01-17 04:30:00
Wind direction
30°
Wind speed
06 kts
Lowest cloud amount
scattered clouds
Temperature
17°C
Dew point
14°C
Humidity
82%
QNH
1020 hPa
Weather condition
n/a

Description

International airport serving the island of Tenerife.

Climatology

Dry-summer subtropical ”Mediterranean" climate (Köppen climate classification Csa) - characterized by hot, dry summers and mild winters. During the summer, subtropical high pressure cells dominate, making rainfall unlikely except for the occasional thunderstorm. In the winter, periodic storms bring rain (snow at higher elevations).

Runways

Designator Length Width Surface Rops
8/26 3200 45 ASP Yes/Yes
Airport map: 
Aerial View: 

SKYbrary Partners:

Safety knowledge contributed by: